createdAt,value
2023-02-24T04:31:26.645Z,7.60
2023-02-24T04:42:03.046Z,7.50
2023-02-24T04:52:38.831Z,7.50
2023-02-24T05:03:15.794Z,7.60
2023-02-24T05:13:51.346Z,7.50
2023-02-24T05:24:29.435Z,7.40
2023-02-24T05:35:05.853Z,7.20
2023-02-24T05:45:44.139Z,7.00
2023-02-24T05:56:19.904Z,6.90
2023-02-24T06:06:55.805Z,6.90
2023-02-24T06:17:31.777Z,6.70
2023-02-24T06:28:07.992Z,6.80
2023-02-24T06:38:43.698Z,6.90
2023-02-24T06:49:19.634Z,7.00
2023-02-24T06:59:56.052Z,7.10
2023-02-24T07:10:32.961Z,7.20
2023-02-24T07:21:16.149Z,7.30
2023-02-24T07:31:54.993Z,7.50
2023-02-24T07:42:35.209Z,7.60
2023-02-24T07:53:16.360Z,7.70
2023-02-24T08:03:55.993Z,7.80
2023-02-24T08:14:34.705Z,8.00
2023-02-24T08:25:18.335Z,8.20
2023-02-24T08:36:03.748Z,8.60
2023-02-24T08:46:40.505Z,9.00
2023-02-24T08:57:18.093Z,9.70
2023-02-24T09:07:54.677Z,9.70
2023-02-24T09:18:30.938Z,9.90
2023-02-24T09:29:26.658Z,9.80
2023-02-24T09:40:17.208Z,9.60
2023-02-24T09:51:05.221Z,9.60
2023-02-24T10:02:10.101Z,9.60
2023-02-24T10:12:52.881Z,9.90
2023-02-24T10:23:47.178Z,10.40
2023-02-24T10:34:31.780Z,10.70
2023-02-24T10:45:22.027Z,10.70
2023-02-24T10:56:18.848Z,10.30
2023-02-24T11:07:09.795Z,10.20
2023-02-24T11:17:53.834Z,10.40
2023-02-24T11:28:49.716Z,11.30
2023-02-24T11:40:03.748Z,11.00
2023-02-24T11:51:24.403Z,10.60
2023-02-24T12:02:15.435Z,11.20
2023-02-24T12:13:03.122Z,11.10
2023-02-24T12:23:44.076Z,11.50
2023-02-24T12:34:22.801Z,12.00
2023-02-24T12:45:03.668Z,12.80
2023-02-24T12:56:06.229Z,11.30
2023-02-24T13:07:20.205Z,11.40
2023-02-24T13:17:58.106Z,12.20
2023-02-24T13:28:38.221Z,11.60
2023-02-24T13:39:35.724Z,11.60
2023-02-24T13:50:25.373Z,11.70
2023-02-24T14:01:03.642Z,11.30
2023-02-24T14:11:39.469Z,11.00
2023-02-24T14:22:20.350Z,10.90
2023-02-24T14:32:56.442Z,11.00
2023-02-24T14:43:32.017Z,11.10
2023-02-24T14:54:15.011Z,10.70
2023-02-24T15:04:55.180Z,10.50
2023-02-24T15:15:34.883Z,10.30
2023-02-24T15:26:26.083Z,10.10
2023-02-24T15:37:12.420Z,10.10
2023-02-24T15:47:53.696Z,10.20
2023-02-24T15:58:29.188Z,9.90
2023-02-24T16:09:05.173Z,9.60
2023-02-24T16:19:40.829Z,9.40
2023-02-24T16:30:22.637Z,9.20
2023-02-24T16:40:59.102Z,9.10
2023-02-24T16:51:35.470Z,9.10
2023-02-24T17:02:19.869Z,8.90
2023-02-24T17:12:55.384Z,8.80
2023-02-24T17:23:32.176Z,8.60
2023-02-24T17:34:07.488Z,8.50
2023-02-24T17:44:43.303Z,8.40
2023-02-24T17:55:19.203Z,8.10
2023-02-24T18:06:01.350Z,7.40
2023-02-24T18:16:37.367Z,7.20
2023-02-24T18:27:13.409Z,6.90
2023-02-24T18:37:53.281Z,6.80
2023-02-24T18:48:30.314Z,6.60
2023-02-24T18:59:06.011Z,6.40
2023-02-24T19:09:42.644Z,6.20
2023-02-24T19:20:19.939Z,6.10
2023-02-24T19:30:55.720Z,6.00
2023-02-24T19:41:31.475Z,6.00
2023-02-24T19:52:07.632Z,6.10
2023-02-24T20:02:43.470Z,5.90
2023-02-24T20:13:19.025Z,5.90
2023-02-24T20:23:54.767Z,6.00
2023-02-24T20:34:30.521Z,5.90
2023-02-24T20:45:07.913Z,5.80
2023-02-24T20:55:44.643Z,5.70
2023-02-24T21:06:20.503Z,5.80
2023-02-24T21:16:56.361Z,5.70
2023-02-24T21:27:31.916Z,5.70
2023-02-24T21:38:08.162Z,5.70
2023-02-24T21:48:43.762Z,5.50
2023-02-24T21:59:19.589Z,5.50
2023-02-24T22:09:55.344Z,5.50
2023-02-24T22:20:31.279Z,5.50
